sensor_id;sensor_type;location;lat;lon;timestamp;P1;durP1;ratioP1;P2;durP2;ratioP2
19205;SDS011;59358;52.134;5.596;2022-11-14T00:02:22;54.47;;;30.75;;
19205;SDS011;59358;52.134;5.596;2022-11-14T00:04:49;50.97;;;30.45;;
19205;SDS011;59358;52.134;5.596;2022-11-14T00:07:15;54.50;;;32.60;;
19205;SDS011;59358;52.134;5.596;2022-11-14T00:09:43;57.63;;;32.63;;
19205;SDS011;59358;52.134;5.596;2022-11-14T00:12:10;59.20;;;34.08;;
19205;SDS011;59358;52.134;5.596;2022-11-14T00:14:37;58.22;;;34.25;;
19205;SDS011;59358;52.134;5.596;2022-11-14T00:17:04;62.75;;;35.85;;
19205;SDS011;59358;52.134;5.596;2022-11-14T00:19:31;64.60;;;37.03;;
19205;SDS011;59358;52.134;5.596;2022-11-14T00:21:58;64.85;;;36.50;;
19205;SDS011;59358;52.134;5.596;2022-11-14T00:24:25;62.03;;;36.17;;
19205;SDS011;59358;52.134;5.596;2022-11-14T00:26:53;70.05;;;39.53;;
19205;SDS011;59358;52.134;5.596;2022-11-14T00:29:20;64.57;;;36.83;;
19205;SDS011;59358;52.134;5.596;2022-11-14T00:31:47;72.65;;;39.63;;
19205;SDS011;59358;52.134;5.596;2022-11-14T00:34:14;63.90;;;39.17;;
19205;SDS011;59358;52.134;5.596;2022-11-14T00:36:41;71.10;;;39.67;;
19205;SDS011;59358;52.134;5.596;2022-11-14T00:39:08;73.43;;;40.15;;
19205;SDS011;59358;52.134;5.596;2022-11-14T00:41:37;73.45;;;40.35;;
19205;SDS011;59358;52.134;5.596;2022-11-14T00:44:06;85.07;;;44.85;;
19205;SDS011;59358;52.134;5.596;2022-11-14T00:46:33;74.03;;;40.72;;
19205;SDS011;59358;52.134;5.596;2022-11-14T00:49:00;80.75;;;44.33;;
19205;SDS011;59358;52.134;5.596;2022-11-14T00:51:27;87.00;;;44.20;;
19205;SDS011;59358;52.134;5.596;2022-11-14T00:53:54;76.97;;;42.00;;
19205;SDS011;59358;52.134;5.596;2022-11-14T00:56:21;83.60;;;44.08;;
19205;SDS011;59358;52.134;5.596;2022-11-14T00:58:48;80.85;;;43.97;;
19205;SDS011;59358;52.134;5.596;2022-11-14T01:01:16;83.55;;;44.05;;
19205;SDS011;59358;52.134;5.596;2022-11-14T01:03:46;78.57;;;42.28;;
19205;SDS011;59358;52.134;5.596;2022-11-14T01:06:13;84.93;;;44.25;;
19205;SDS011;59358;52.134;5.596;2022-11-14T01:08:40;83.65;;;46.67;;
19205;SDS011;59358;52.134;5.596;2022-11-14T01:11:08;86.32;;;44.05;;
19205;SDS011;59358;52.134;5.596;2022-11-14T01:13:36;80.32;;;42.97;;
19205;SDS011;59358;52.134;5.596;2022-11-14T01:16:04;90.18;;;45.33;;
19205;SDS011;59358;52.134;5.596;2022-11-14T01:18:33;91.95;;;45.38;;
19205;SDS011;59358;52.134;5.596;2022-11-14T01:21:03;91.72;;;46.08;;
19205;SDS011;59358;52.134;5.596;2022-11-14T01:23:30;95.57;;;46.53;;
19205;SDS011;59358;52.134;5.596;2022-11-14T01:26:00;93.03;;;47.08;;
19205;SDS011;59358;52.134;5.596;2022-11-14T01:28:28;95.93;;;47.05;;
19205;SDS011;59358;52.134;5.596;2022-11-14T01:30:54;84.60;;;44.33;;
19205;SDS011;59358;52.134;5.596;2022-11-14T01:33:21;90.57;;;47.05;;
19205;SDS011;59358;52.134;5.596;2022-11-14T01:35:49;96.63;;;45.55;;
19205;SDS011;59358;52.134;5.596;2022-11-14T01:38:17;92.70;;;46.83;;
19205;SDS011;59358;52.134;5.596;2022-11-14T01:40:44;101.88;;;47.85;;
19205;SDS011;59358;52.134;5.596;2022-11-14T01:43:20;100.30;;;48.45;;
19205;SDS011;59358;52.134;5.596;2022-11-14T01:45:54;90.75;;;44.95;;
19205;SDS011;59358;52.134;5.596;2022-11-14T01:48:23;103.40;;;48.08;;
19205;SDS011;59358;52.134;5.596;2022-11-14T01:50:58;102.25;;;49.22;;
19205;SDS011;59358;52.134;5.596;2022-11-14T01:53:28;99.60;;;47.83;;
19205;SDS011;59358;52.134;5.596;2022-11-14T01:55:56;99.53;;;48.90;;
19205;SDS011;59358;52.134;5.596;2022-11-14T01:58:26;101.13;;;48.95;;
19205;SDS011;59358;52.134;5.596;2022-11-14T02:00:54;97.88;;;47.60;;
19205;SDS011;59358;52.134;5.596;2022-11-14T02:03:22;104.38;;;48.78;;
19205;SDS011;59358;52.134;5.596;2022-11-14T02:05:50;106.75;;;49.55;;
19205;SDS011;59358;52.134;5.596;2022-11-14T02:08:19;103.50;;;48.30;;
19205;SDS011;59358;52.134;5.596;2022-11-14T02:10:47;108.57;;;51.72;;
19205;SDS011;59358;52.134;5.596;2022-11-14T02:13:14;103.38;;;49.67;;
19205;SDS011;59358;52.134;5.596;2022-11-14T02:15:41;110.45;;;49.50;;
19205;SDS011;59358;52.134;5.596;2022-11-14T02:18:08;105.28;;;49.28;;
19205;SDS011;59358;52.134;5.596;2022-11-14T02:20:38;107.18;;;50.00;;
19205;SDS011;59358;52.134;5.596;2022-11-14T02:23:07;111.55;;;49.15;;
19205;SDS011;59358;52.134;5.596;2022-11-14T02:25:35;114.55;;;51.22;;
19205;SDS011;59358;52.134;5.596;2022-11-14T02:28:03;112.25;;;51.13;;
19205;SDS011;59358;52.134;5.596;2022-11-14T02:30:32;112.05;;;50.67;;
19205;SDS011;59358;52.134;5.596;2022-11-14T02:32:59;113.97;;;51.60;;
19205;SDS011;59358;52.134;5.596;2022-11-14T02:35:26;109.68;;;50.55;;
19205;SDS011;59358;52.134;5.596;2022-11-14T02:37:54;116.60;;;51.63;;
19205;SDS011;59358;52.134;5.596;2022-11-14T02:40:21;110.40;;;50.42;;
19205;SDS011;59358;52.134;5.596;2022-11-14T02:42:48;114.63;;;52.90;;
19205;SDS011;59358;52.134;5.596;2022-11-14T02:45:14;109.40;;;50.60;;
19205;SDS011;59358;52.134;5.596;2022-11-14T02:47:41;123.15;;;52.92;;
19205;SDS011;59358;52.134;5.596;2022-11-14T02:50:08;133.63;;;54.08;;
19205;SDS011;59358;52.134;5.596;2022-11-14T02:52:36;127.82;;;54.30;;
19205;SDS011;59358;52.134;5.596;2022-11-14T02:55:04;122.60;;;53.75;;
19205;SDS011;59358;52.134;5.596;2022-11-14T02:57:31;132.02;;;54.78;;
19205;SDS011;59358;52.134;5.596;2022-11-14T02:59:58;136.40;;;54.30;;
19205;SDS011;59358;52.134;5.596;2022-11-14T03:02:25;132.50;;;52.85;;
19205;SDS011;59358;52.134;5.596;2022-11-14T03:04:52;125.75;;;52.17;;
19205;SDS011;59358;52.134;5.596;2022-11-14T03:07:19;135.57;;;55.60;;
19205;SDS011;59358;52.134;5.596;2022-11-14T03:09:46;131.13;;;53.88;;
19205;SDS011;59358;52.134;5.596;2022-11-14T03:12:15;124.60;;;54.65;;
19205;SDS011;59358;52.134;5.596;2022-11-14T03:14:42;132.10;;;54.20;;
19205;SDS011;59358;52.134;5.596;2022-11-14T03:17:09;147.88;;;56.20;;
19205;SDS011;59358;52.134;5.596;2022-11-14T03:19:36;143.35;;;57.00;;
19205;SDS011;59358;52.134;5.596;2022-11-14T03:22:03;131.60;;;53.15;;
19205;SDS011;59358;52.134;5.596;2022-11-14T03:24:31;131.52;;;50.92;;
19205;SDS011;59358;52.134;5.596;2022-11-14T03:26:57;132.77;;;52.08;;
19205;SDS011;59358;52.134;5.596;2022-11-14T03:29:27;147.00;;;55.17;;
19205;SDS011;59358;52.134;5.596;2022-11-14T03:31:53;145.77;;;56.17;;
19205;SDS011;59358;52.134;5.596;2022-11-14T03:34:20;150.38;;;56.05;;
19205;SDS011;59358;52.134;5.596;2022-11-14T03:36:47;150.48;;;56.83;;
19205;SDS011;59358;52.134;5.596;2022-11-14T03:39:14;149.35;;;55.78;;
19205;SDS011;59358;52.134;5.596;2022-11-14T03:41:41;156.02;;;56.13;;
19205;SDS011;59358;52.134;5.596;2022-11-14T03:44:08;153.15;;;56.78;;
19205;SDS011;59358;52.134;5.596;2022-11-14T03:46:36;148.65;;;56.50;;
19205;SDS011;59358;52.134;5.596;2022-11-14T03:49:03;151.32;;;54.63;;
19205;SDS011;59358;52.134;5.596;2022-11-14T03:51:29;143.70;;;52.80;;
19205;SDS011;59358;52.134;5.596;2022-11-14T03:53:56;154.13;;;54.88;;
19205;SDS011;59358;52.134;5.596;2022-11-14T03:56:23;163.75;;;59.25;;
19205;SDS011;59358;52.134;5.596;2022-11-14T03:58:50;143.13;;;53.92;;
19205;SDS011;59358;52.134;5.596;2022-11-14T04:01:17;148.75;;;55.75;;
19205;SDS011;59358;52.134;5.596;2022-11-14T04:03:45;160.95;;;54.55;;
19205;SDS011;59358;52.134;5.596;2022-11-14T04:06:12;161.00;;;54.65;;
19205;SDS011;59358;52.134;5.596;2022-11-14T04:08:40;170.15;;;57.50;;
19205;SDS011;59358;52.134;5.596;2022-11-14T04:11:07;154.27;;;56.03;;
19205;SDS011;59358;52.134;5.596;2022-11-14T04:13:33;167.80;;;57.55;;
19205;SDS011;59358;52.134;5.596;2022-11-14T04:16:00;154.27;;;54.78;;
19205;SDS011;59358;52.134;5.596;2022-11-14T04:18:27;153.20;;;53.00;;
19205;SDS011;59358;52.134;5.596;2022-11-14T04:20:56;168.80;;;54.95;;
19205;SDS011;59358;52.134;5.596;2022-11-14T04:23:23;154.73;;;53.97;;
19205;SDS011;59358;52.134;5.596;2022-11-14T04:25:50;154.95;;;53.58;;
19205;SDS011;59358;52.134;5.596;2022-11-14T04:28:17;156.48;;;54.22;;
19205;SDS011;59358;52.134;5.596;2022-11-14T04:30:43;156.65;;;55.47;;
19205;SDS011;59358;52.134;5.596;2022-11-14T04:33:10;156.90;;;56.20;;
19205;SDS011;59358;52.134;5.596;2022-11-14T04:35:37;158.20;;;52.75;;
19205;SDS011;59358;52.134;5.596;2022-11-14T04:38:05;161.32;;;53.72;;
19205;SDS011;59358;52.134;5.596;2022-11-14T04:40:32;156.10;;;52.85;;
19205;SDS011;59358;52.134;5.596;2022-11-14T04:42:59;139.68;;;52.40;;
19205;SDS011;59358;52.134;5.596;2022-11-14T04:45:26;144.60;;;52.72;;
19205;SDS011;59358;52.134;5.596;2022-11-14T04:47:53;142.00;;;52.35;;
19205;SDS011;59358;52.134;5.596;2022-11-14T04:50:19;144.60;;;52.90;;
19205;SDS011;59358;52.134;5.596;2022-11-14T04:52:49;141.23;;;51.97;;
19205;SDS011;59358;52.134;5.596;2022-11-14T04:55:18;145.73;;;50.92;;
19205;SDS011;59358;52.134;5.596;2022-11-14T04:57:45;142.05;;;53.08;;
19205;SDS011;59358;52.134;5.596;2022-11-14T05:00:12;125.30;;;49.17;;
19205;SDS011;59358;52.134;5.596;2022-11-14T05:02:40;147.90;;;53.63;;
19205;SDS011;59358;52.134;5.596;2022-11-14T05:05:07;150.15;;;55.38;;
19205;SDS011;59358;52.134;5.596;2022-11-14T05:07:34;144.75;;;50.85;;
19205;SDS011;59358;52.134;5.596;2022-11-14T05:10:01;149.65;;;51.13;;
19205;SDS011;59358;52.134;5.596;2022-11-14T05:12:30;145.02;;;50.92;;
19205;SDS011;59358;52.134;5.596;2022-11-14T05:14:57;147.35;;;51.60;;
19205;SDS011;59358;52.134;5.596;2022-11-14T05:17:24;148.35;;;53.35;;
19205;SDS011;59358;52.134;5.596;2022-11-14T05:19:50;143.82;;;51.60;;
19205;SDS011;59358;52.134;5.596;2022-11-14T05:22:17;137.07;;;50.13;;
19205;SDS011;59358;52.134;5.596;2022-11-14T05:24:44;136.45;;;51.03;;
19205;SDS011;59358;52.134;5.596;2022-11-14T05:27:11;138.18;;;51.00;;
19205;SDS011;59358;52.134;5.596;2022-11-14T05:29:39;134.77;;;50.00;;
19205;SDS011;59358;52.134;5.596;2022-11-14T05:32:07;134.82;;;49.28;;
19205;SDS011;59358;52.134;5.596;2022-11-14T05:34:34;129.07;;;49.40;;
19205;SDS011;59358;52.134;5.596;2022-11-14T05:37:00;139.65;;;50.60;;
19205;SDS011;59358;52.134;5.596;2022-11-14T05:39:28;135.25;;;49.72;;
19205;SDS011;59358;52.134;5.596;2022-11-14T05:41:55;132.00;;;47.85;;
19205;SDS011;59358;52.134;5.596;2022-11-14T05:44:22;143.82;;;50.55;;
19205;SDS011;59358;52.134;5.596;2022-11-14T05:46:50;136.68;;;47.47;;
19205;SDS011;59358;52.134;5.596;2022-11-14T05:49:16;127.97;;;47.95;;
19205;SDS011;59358;52.134;5.596;2022-11-14T05:51:43;130.23;;;47.95;;
19205;SDS011;59358;52.134;5.596;2022-11-14T05:54:10;120.85;;;45.90;;
19205;SDS011;59358;52.134;5.596;2022-11-14T05:56:37;132.13;;;48.75;;
19205;SDS011;59358;52.134;5.596;2022-11-14T05:59:04;132.70;;;48.10;;
19205;SDS011;59358;52.134;5.596;2022-11-14T06:01:30;122.50;;;45.78;;
19205;SDS011;59358;52.134;5.596;2022-11-14T06:03:59;137.35;;;48.67;;
19205;SDS011;59358;52.134;5.596;2022-11-14T06:06:25;117.05;;;44.95;;
19205;SDS011;59358;52.134;5.596;2022-11-14T06:08:52;129.02;;;47.58;;
19205;SDS011;59358;52.134;5.596;2022-11-14T06:11:19;130.57;;;47.33;;
19205;SDS011;59358;52.134;5.596;2022-11-14T06:13:46;121.80;;;45.85;;
19205;SDS011;59358;52.134;5.596;2022-11-14T06:16:14;138.60;;;47.67;;
19205;SDS011;59358;52.134;5.596;2022-11-14T06:18:42;132.02;;;48.03;;
19205;SDS011;59358;52.134;5.596;2022-11-14T06:21:11;141.90;;;48.17;;
19205;SDS011;59358;52.134;5.596;2022-11-14T06:23:39;124.65;;;46.25;;
19205;SDS011;59358;52.134;5.596;2022-11-14T06:26:08;125.70;;;44.45;;
19205;SDS011;59358;52.134;5.596;2022-11-14T06:28:40;139.48;;;46.97;;
19205;SDS011;59358;52.134;5.596;2022-11-14T06:31:06;121.03;;;44.38;;
19205;SDS011;59358;52.134;5.596;2022-11-14T06:33:34;125.78;;;49.15;;
19205;SDS011;59358;52.134;5.596;2022-11-14T06:36:03;132.43;;;48.33;;
19205;SDS011;59358;52.134;5.596;2022-11-14T06:38:33;133.55;;;47.22;;
19205;SDS011;59358;52.134;5.596;2022-11-14T06:41:02;120.93;;;46.85;;
19205;SDS011;59358;52.134;5.596;2022-11-14T06:43:31;130.60;;;48.95;;
19205;SDS011;59358;52.134;5.596;2022-11-14T06:45:58;120.05;;;45.08;;
19205;SDS011;59358;52.134;5.596;2022-11-14T06:48:25;129.60;;;48.83;;
19205;SDS011;59358;52.134;5.596;2022-11-14T06:50:53;137.32;;;46.42;;
19205;SDS011;59358;52.134;5.596;2022-11-14T06:53:20;137.30;;;47.92;;
19205;SDS011;59358;52.134;5.596;2022-11-14T06:55:53;134.88;;;47.90;;
19205;SDS011;59358;52.134;5.596;2022-11-14T06:58:21;132.38;;;48.22;;
19205;SDS011;59358;52.134;5.596;2022-11-14T07:00:47;124.28;;;45.15;;
19205;SDS011;59358;52.134;5.596;2022-11-14T07:03:14;127.07;;;45.05;;
19205;SDS011;59358;52.134;5.596;2022-11-14T07:05:41;126.85;;;46.22;;
19205;SDS011;59358;52.134;5.596;2022-11-14T07:08:08;134.95;;;47.13;;
19205;SDS011;59358;52.134;5.596;2022-11-14T07:10:35;134.77;;;45.17;;
19205;SDS011;59358;52.134;5.596;2022-11-14T07:13:03;134.75;;;48.88;;
19205;SDS011;59358;52.134;5.596;2022-11-14T07:15:30;122.07;;;45.25;;
19205;SDS011;59358;52.134;5.596;2022-11-14T07:17:57;116.90;;;42.67;;
19205;SDS011;59358;52.134;5.596;2022-11-14T07:20:24;119.40;;;45.17;;
19205;SDS011;59358;52.134;5.596;2022-11-14T07:22:51;125.55;;;46.15;;
19205;SDS011;59358;52.134;5.596;2022-11-14T07:25:18;131.20;;;45.95;;
19205;SDS011;59358;52.134;5.596;2022-11-14T07:27:46;132.25;;;46.08;;
19205;SDS011;59358;52.134;5.596;2022-11-14T07:30:15;124.18;;;47.00;;
19205;SDS011;59358;52.134;5.596;2022-11-14T07:32:42;127.43;;;45.35;;
19205;SDS011;59358;52.134;5.596;2022-11-14T07:35:09;109.80;;;45.22;;
19205;SDS011;59358;52.134;5.596;2022-11-14T07:37:35;123.43;;;45.10;;
19205;SDS011;59358;52.134;5.596;2022-11-14T07:40:02;129.25;;;47.60;;
19205;SDS011;59358;52.134;5.596;2022-11-14T07:42:30;123.18;;;45.72;;
19205;SDS011;59358;52.134;5.596;2022-11-14T07:44:56;111.00;;;43.30;;
19205;SDS011;59358;52.134;5.596;2022-11-14T07:47:25;106.28;;;43.25;;
19205;SDS011;59358;52.134;5.596;2022-11-14T07:49:52;110.82;;;44.15;;
19205;SDS011;59358;52.134;5.596;2022-11-14T07:52:19;118.88;;;44.92;;
19205;SDS011;59358;52.134;5.596;2022-11-14T07:54:46;118.43;;;44.90;;
19205;SDS011;59358;52.134;5.596;2022-11-14T07:57:13;114.25;;;45.17;;
19205;SDS011;59358;52.134;5.596;2022-11-14T07:59:40;111.22;;;42.55;;
19205;SDS011;59358;52.134;5.596;2022-11-14T08:02:08;108.05;;;44.05;;
19205;SDS011;59358;52.134;5.596;2022-11-14T08:04:39;104.45;;;41.70;;
19205;SDS011;59358;52.134;5.596;2022-11-14T08:07:07;106.15;;;41.38;;
19205;SDS011;59358;52.134;5.596;2022-11-14T08:09:33;97.50;;;41.25;;
19205;SDS011;59358;52.134;5.596;2022-11-14T08:12:00;96.30;;;39.25;;
19205;SDS011;59358;52.134;5.596;2022-11-14T08:14:27;91.55;;;38.30;;
19205;SDS011;59358;52.134;5.596;2022-11-14T08:16:54;95.63;;;41.83;;
19205;SDS011;59358;52.134;5.596;2022-11-14T08:19:21;84.30;;;37.33;;
19205;SDS011;59358;52.134;5.596;2022-11-14T08:21:49;90.65;;;39.40;;
19205;SDS011;59358;52.134;5.596;2022-11-14T08:24:16;91.13;;;40.17;;
19205;SDS011;59358;52.134;5.596;2022-11-14T08:26:43;87.20;;;39.47;;
19205;SDS011;59358;52.134;5.596;2022-11-14T08:29:10;86.72;;;37.78;;
19205;SDS011;59358;52.134;5.596;2022-11-14T08:31:38;85.10;;;38.38;;
19205;SDS011;59358;52.134;5.596;2022-11-14T08:34:04;86.25;;;37.67;;
19205;SDS011;59358;52.134;5.596;2022-11-14T08:36:31;79.95;;;37.22;;
19205;SDS011;59358;52.134;5.596;2022-11-14T08:39:00;84.50;;;37.30;;
19205;SDS011;59358;52.134;5.596;2022-11-14T08:41:26;82.75;;;36.72;;
19205;SDS011;59358;52.134;5.596;2022-11-14T08:43:53;79.22;;;35.80;;
19205;SDS011;59358;52.134;5.596;2022-11-14T08:46:20;75.28;;;35.33;;
19205;SDS011;59358;52.134;5.596;2022-11-14T08:48:47;75.43;;;34.25;;
19205;SDS011;59358;52.134;5.596;2022-11-14T08:51:14;70.90;;;34.80;;
19205;SDS011;59358;52.134;5.596;2022-11-14T08:53:40;74.03;;;35.08;;
19205;SDS011;59358;52.134;5.596;2022-11-14T08:56:09;72.10;;;33.45;;
19205;SDS011;59358;52.134;5.596;2022-11-14T08:58:36;63.92;;;30.70;;
19205;SDS011;59358;52.134;5.596;2022-11-14T09:01:03;69.93;;;32.15;;
19205;SDS011;59358;52.134;5.596;2022-11-14T09:03:31;59.95;;;30.02;;
19205;SDS011;59358;52.134;5.596;2022-11-14T09:05:58;63.38;;;30.65;;
19205;SDS011;59358;52.134;5.596;2022-11-14T09:08:25;56.25;;;28.60;;
19205;SDS011;59358;52.134;5.596;2022-11-14T09:10:54;52.75;;;28.17;;
19205;SDS011;59358;52.134;5.596;2022-11-14T09:13:22;57.00;;;28.23;;
19205;SDS011;59358;52.134;5.596;2022-11-14T09:15:51;52.83;;;27.40;;
19205;SDS011;59358;52.134;5.596;2022-11-14T09:18:18;51.10;;;27.23;;
19205;SDS011;59358;52.134;5.596;2022-11-14T09:20:45;49.45;;;27.42;;
19205;SDS011;59358;52.134;5.596;2022-11-14T09:23:12;51.03;;;26.25;;
19205;SDS011;59358;52.134;5.596;2022-11-14T09:25:39;53.25;;;25.85;;
19205;SDS011;59358;52.134;5.596;2022-11-14T09:28:05;49.53;;;25.80;;
19205;SDS011;59358;52.134;5.596;2022-11-14T09:30:34;45.35;;;25.10;;
19205;SDS011;59358;52.134;5.596;2022-11-14T09:33:02;48.28;;;24.67;;
19205;SDS011;59358;52.134;5.596;2022-11-14T09:35:30;48.55;;;25.65;;
19205;SDS011;59358;52.134;5.596;2022-11-14T09:38:00;48.05;;;25.90;;
19205;SDS011;59358;52.134;5.596;2022-11-14T09:40:29;50.97;;;25.90;;
19205;SDS011;59358;52.134;5.596;2022-11-14T09:43:07;53.90;;;26.23;;
19205;SDS011;59358;52.134;5.596;2022-11-14T09:45:51;45.55;;;26.45;;
19205;SDS011;59358;52.134;5.596;2022-11-14T09:48:20;48.25;;;25.42;;
19205;SDS011;59358;52.134;5.596;2022-11-14T09:50:50;45.60;;;25.45;;
19205;SDS011;59358;52.134;5.596;2022-11-14T09:53:30;36.55;;;21.60;;
19205;SDS011;59358;52.134;5.596;2022-11-14T09:55:59;32.45;;;20.25;;
19205;SDS011;59358;52.134;5.596;2022-11-14T09:58:26;29.33;;;19.10;;
19205;SDS011;59358;52.134;5.596;2022-11-14T10:00:55;27.77;;;16.60;;
19205;SDS011;59358;52.134;5.596;2022-11-14T10:03:32;27.20;;;16.98;;
19205;SDS011;59358;52.134;5.596;2022-11-14T10:06:14;26.85;;;16.05;;
19205;SDS011;59358;52.134;5.596;2022-11-14T10:08:49;25.70;;;15.35;;
19205;SDS011;59358;52.134;5.596;2022-11-14T10:11:28;20.80;;;13.82;;
19205;SDS011;59358;52.134;5.596;2022-11-14T10:17:06;26.98;;;15.75;;
19205;SDS011;59358;52.134;5.596;2022-11-14T10:19:48;21.58;;;14.55;;
19205;SDS011;59358;52.134;5.596;2022-11-14T10:22:24;21.83;;;13.70;;
19205;SDS011;59358;52.134;5.596;2022-11-14T10:25:06;22.77;;;14.93;;
19205;SDS011;59358;52.134;5.596;2022-11-14T10:27:45;21.15;;;13.77;;
19205;SDS011;59358;52.134;5.596;2022-11-14T10:30:22;23.92;;;14.88;;
19205;SDS011;59358;52.134;5.596;2022-11-14T10:33:10;24.30;;;14.80;;
19205;SDS011;59358;52.134;5.596;2022-11-14T10:35:44;18.35;;;13.77;;
19205;SDS011;59358;52.134;5.596;2022-11-14T10:38:16;26.08;;;15.38;;
19205;SDS011;59358;52.134;5.596;2022-11-14T10:40:47;25.23;;;15.88;;
19205;SDS011;59358;52.134;5.596;2022-11-14T10:43:21;25.30;;;15.35;;
19205;SDS011;59358;52.134;5.596;2022-11-14T10:45:52;23.95;;;15.60;;
19205;SDS011;59358;52.134;5.596;2022-11-14T10:48:27;24.52;;;15.32;;
19205;SDS011;59358;52.134;5.596;2022-11-14T10:50:56;21.70;;;14.50;;
19205;SDS011;59358;52.134;5.596;2022-11-14T10:53:27;22.13;;;15.15;;
19205;SDS011;59358;52.134;5.596;2022-11-14T10:56:00;23.92;;;15.75;;
19205;SDS011;59358;52.134;5.596;2022-11-14T10:58:27;21.42;;;14.45;;
19205;SDS011;59358;52.134;5.596;2022-11-14T11:00:54;23.45;;;15.50;;
19205;SDS011;59358;52.134;5.596;2022-11-14T11:03:32;23.75;;;15.23;;
19205;SDS011;59358;52.134;5.596;2022-11-14T11:06:08;21.67;;;14.18;;
19205;SDS011;59358;52.134;5.596;2022-11-14T11:08:51;24.45;;;15.25;;
19205;SDS011;59358;52.134;5.596;2022-11-14T11:11:37;23.95;;;16.05;;
19205;SDS011;59358;52.134;5.596;2022-11-14T11:14:08;26.80;;;15.45;;
19205;SDS011;59358;52.134;5.596;2022-11-14T11:16:41;24.10;;;16.63;;
19205;SDS011;59358;52.134;5.596;2022-11-14T11:19:20;27.10;;;17.73;;
19205;SDS011;59358;52.134;5.596;2022-11-14T11:21:49;27.00;;;16.60;;
19205;SDS011;59358;52.134;5.596;2022-11-14T11:24:30;23.05;;;15.98;;
19205;SDS011;59358;52.134;5.596;2022-11-14T11:27:17;26.13;;;17.17;;
19205;SDS011;59358;52.134;5.596;2022-11-14T11:29:49;25.20;;;16.50;;
19205;SDS011;59358;52.134;5.596;2022-11-14T11:32:27;26.05;;;17.05;;
19205;SDS011;59358;52.134;5.596;2022-11-14T11:34:56;25.85;;;16.75;;
19205;SDS011;59358;52.134;5.596;2022-11-14T11:37:25;24.42;;;16.35;;
19205;SDS011;59358;52.134;5.596;2022-11-14T11:39:57;28.00;;;17.67;;
19205;SDS011;59358;52.134;5.596;2022-11-14T11:42:29;26.42;;;17.35;;
19205;SDS011;59358;52.134;5.596;2022-11-14T11:45:03;27.80;;;17.73;;
19205;SDS011;59358;52.134;5.596;2022-11-14T11:47:37;26.70;;;16.80;;
19205;SDS011;59358;52.134;5.596;2022-11-14T11:50:11;25.35;;;17.27;;
19205;SDS011;59358;52.134;5.596;2022-11-14T11:52:42;24.75;;;16.55;;
19205;SDS011;59358;52.134;5.596;2022-11-14T11:55:15;28.85;;;16.85;;
19205;SDS011;59358;52.134;5.596;2022-11-14T11:57:46;24.92;;;16.90;;
19205;SDS011;59358;52.134;5.596;2022-11-14T12:00:17;28.23;;;18.35;;
19205;SDS011;59358;52.134;5.596;2022-11-14T12:02:45;25.63;;;17.45;;
19205;SDS011;59358;52.134;5.596;2022-11-14T12:05:16;22.75;;;16.80;;
19205;SDS011;59358;52.134;5.596;2022-11-14T12:07:51;28.75;;;18.45;;
19205;SDS011;59358;52.134;5.596;2022-11-14T12:10:22;29.30;;;18.35;;
19205;SDS011;59358;52.134;5.596;2022-11-14T12:15:52;30.65;;;20.17;;
19205;SDS011;59358;52.134;5.596;2022-11-14T12:18:32;27.90;;;20.23;;
19205;SDS011;59358;52.134;5.596;2022-11-14T12:21:17;27.25;;;20.02;;
19205;SDS011;59358;52.134;5.596;2022-11-14T12:24:14;29.92;;;20.15;;
19205;SDS011;59358;52.134;5.596;2022-11-14T12:27:11;30.40;;;20.30;;
19205;SDS011;59358;52.134;5.596;2022-11-14T12:30:08;31.73;;;20.60;;
19205;SDS011;59358;52.134;5.596;2022-11-14T12:32:39;30.80;;;20.60;;
19205;SDS011;59358;52.134;5.596;2022-11-14T12:35:13;31.10;;;20.25;;
19205;SDS011;59358;52.134;5.596;2022-11-14T12:37:48;32.15;;;22.40;;
19205;SDS011;59358;52.134;5.596;2022-11-14T12:40:20;32.13;;;21.48;;
19205;SDS011;59358;52.134;5.596;2022-11-14T12:42:55;28.42;;;21.45;;
19205;SDS011;59358;52.134;5.596;2022-11-14T12:48:22;32.28;;;22.10;;
19205;SDS011;59358;52.134;5.596;2022-11-14T12:50:56;31.70;;;21.60;;
19205;SDS011;59358;52.134;5.596;2022-11-14T12:53:38;35.58;;;22.63;;
19205;SDS011;59358;52.134;5.596;2022-11-14T12:59:18;37.00;;;25.77;;
19205;SDS011;59358;52.134;5.596;2022-11-14T13:02:00;38.28;;;26.15;;
19205;SDS011;59358;52.134;5.596;2022-11-14T13:04:52;43.60;;;27.92;;
19205;SDS011;59358;52.134;5.596;2022-11-14T13:07:43;40.90;;;26.67;;
19205;SDS011;59358;52.134;5.596;2022-11-14T13:10:23;45.28;;;28.10;;
19205;SDS011;59358;52.134;5.596;2022-11-14T13:12:56;40.67;;;25.80;;
19205;SDS011;59358;52.134;5.596;2022-11-14T13:15:49;38.90;;;25.90;;
19205;SDS011;59358;52.134;5.596;2022-11-14T13:18:35;42.08;;;26.45;;
19205;SDS011;59358;52.134;5.596;2022-11-14T13:21:32;43.80;;;26.02;;
19205;SDS011;59358;52.134;5.596;2022-11-14T13:24:11;37.55;;;25.52;;
19205;SDS011;59358;52.134;5.596;2022-11-14T13:26:44;40.20;;;26.88;;
19205;SDS011;59358;52.134;5.596;2022-11-14T13:35:32;38.53;;;25.27;;
19205;SDS011;59358;52.134;5.596;2022-11-14T13:38:26;35.05;;;23.65;;
19205;SDS011;59358;52.134;5.596;2022-11-14T13:44:15;38.13;;;23.65;;
19205;SDS011;59358;52.134;5.596;2022-11-14T13:47:12;39.70;;;23.83;;
19205;SDS011;59358;52.134;5.596;2022-11-14T13:50:00;33.58;;;21.98;;
19205;SDS011;59358;52.134;5.596;2022-11-14T13:52:30;37.88;;;23.30;;
19205;SDS011;59358;52.134;5.596;2022-11-14T13:54:59;35.45;;;21.85;;
19205;SDS011;59358;52.134;5.596;2022-11-14T13:57:29;36.40;;;22.58;;
19205;SDS011;59358;52.134;5.596;2022-11-14T14:00:06;35.38;;;22.63;;
19205;SDS011;59358;52.134;5.596;2022-11-14T14:03:02;32.58;;;21.40;;
19205;SDS011;59358;52.134;5.596;2022-11-14T14:05:44;33.45;;;21.33;;
19205;SDS011;59358;52.134;5.596;2022-11-14T14:08:27;37.92;;;22.55;;
19205;SDS011;59358;52.134;5.596;2022-11-14T14:11:09;38.33;;;22.35;;
19205;SDS011;59358;52.134;5.596;2022-11-14T14:13:54;35.90;;;21.85;;
19205;SDS011;59358;52.134;5.596;2022-11-14T14:16:32;37.67;;;22.00;;
19205;SDS011;59358;52.134;5.596;2022-11-14T14:19:06;35.83;;;22.60;;
19205;SDS011;59358;52.134;5.596;2022-11-14T14:21:41;40.63;;;23.05;;
19205;SDS011;59358;52.134;5.596;2022-11-14T14:24:16;38.13;;;22.17;;
19205;SDS011;59358;52.134;5.596;2022-11-14T14:26:58;34.60;;;22.40;;
19205;SDS011;59358;52.134;5.596;2022-11-14T14:29:32;37.08;;;22.10;;
19205;SDS011;59358;52.134;5.596;2022-11-14T14:32:10;42.47;;;21.88;;
19205;SDS011;59358;52.134;5.596;2022-11-14T14:34:38;36.28;;;22.48;;
19205;SDS011;59358;52.134;5.596;2022-11-14T14:37:12;36.30;;;23.10;;
19205;SDS011;59358;52.134;5.596;2022-11-14T14:39:53;42.50;;;23.98;;
19205;SDS011;59358;52.134;5.596;2022-11-14T14:42:21;40.30;;;23.73;;
19205;SDS011;59358;52.134;5.596;2022-11-14T14:44:48;39.30;;;23.30;;
19205;SDS011;59358;52.134;5.596;2022-11-14T14:47:17;37.35;;;23.67;;
19205;SDS011;59358;52.134;5.596;2022-11-14T14:49:59;35.05;;;22.00;;
19205;SDS011;59358;52.134;5.596;2022-11-14T14:52:28;43.05;;;23.92;;
19205;SDS011;59358;52.134;5.596;2022-11-14T14:54:56;42.83;;;26.42;;
19205;SDS011;59358;52.134;5.596;2022-11-14T14:57:26;40.58;;;23.45;;